sensor_id;sensor_type;location;lat;lon;timestamp;P1;durP1;ratioP1;P2;durP2;ratioP2
13975;SDS011;7062;49.792;9.946;2023-02-03T00:00:27;3.30;;;2.70;;
13975;SDS011;7062;49.792;9.946;2023-02-03T00:02:55;6.73;;;2.43;;
13975;SDS011;7062;49.792;9.946;2023-02-03T00:05:21;8.50;;;2.58;;
13975;SDS011;7062;49.792;9.946;2023-02-03T00:07:48;5.20;;;2.65;;
13975;SDS011;7062;49.792;9.946;2023-02-03T00:10:14;5.15;;;2.97;;
13975;SDS011;7062;49.792;9.946;2023-02-03T00:12:45;5.78;;;2.53;;
13975;SDS011;7062;49.792;9.946;2023-02-03T00:15:14;6.25;;;2.40;;
13975;SDS011;7062;49.792;9.946;2023-02-03T00:17:40;4.05;;;2.55;;
13975;SDS011;7062;49.792;9.946;2023-02-03T00:20:06;4.63;;;2.57;;
13975;SDS011;7062;49.792;9.946;2023-02-03T00:22:35;7.32;;;2.20;;
13975;SDS011;7062;49.792;9.946;2023-02-03T00:25:01;5.27;;;2.70;;
13975;SDS011;7062;49.792;9.946;2023-02-03T00:27:27;3.70;;;2.53;;
13975;SDS011;7062;49.792;9.946;2023-02-03T00:29:53;5.83;;;2.67;;
13975;SDS011;7062;49.792;9.946;2023-02-03T00:32:18;7.97;;;2.50;;
13975;SDS011;7062;49.792;9.946;2023-02-03T00:34:44;5.67;;;2.67;;
13975;SDS011;7062;49.792;9.946;2023-02-03T00:37:13;4.87;;;2.70;;
13975;SDS011;7062;49.792;9.946;2023-02-03T00:39:38;5.00;;;2.58;;
13975;SDS011;7062;49.792;9.946;2023-02-03T00:42:04;4.33;;;2.10;;
13975;SDS011;7062;49.792;9.946;2023-02-03T00:44:30;3.83;;;2.08;;
13975;SDS011;7062;49.792;9.946;2023-02-03T00:46:57;8.75;;;2.92;;
13975;SDS011;7062;49.792;9.946;2023-02-03T00:49:23;5.38;;;2.40;;
13975;SDS011;7062;49.792;9.946;2023-02-03T00:51:49;4.63;;;2.20;;
13975;SDS011;7062;49.792;9.946;2023-02-03T00:54:15;7.10;;;3.57;;
13975;SDS011;7062;49.792;9.946;2023-02-03T00:56:41;4.18;;;2.67;;
13975;SDS011;7062;49.792;9.946;2023-02-03T00:59:07;6.00;;;3.22;;
13975;SDS011;7062;49.792;9.946;2023-02-03T01:01:33;6.10;;;2.60;;
13975;SDS011;7062;49.792;9.946;2023-02-03T01:03:59;4.57;;;2.30;;
13975;SDS011;7062;49.792;9.946;2023-02-03T01:06:25;5.20;;;2.97;;
13975;SDS011;7062;49.792;9.946;2023-02-03T01:08:51;3.70;;;2.20;;
13975;SDS011;7062;49.792;9.946;2023-02-03T01:11:21;3.63;;;2.83;;
13975;SDS011;7062;49.792;9.946;2023-02-03T01:13:49;6.07;;;2.83;;
13975;SDS011;7062;49.792;9.946;2023-02-03T01:16:17;4.38;;;2.28;;
13975;SDS011;7062;49.792;9.946;2023-02-03T01:18:44;4.63;;;2.25;;
13975;SDS011;7062;49.792;9.946;2023-02-03T01:21:12;5.73;;;2.23;;
13975;SDS011;7062;49.792;9.946;2023-02-03T01:23:39;8.20;;;2.80;;
13975;SDS011;7062;49.792;9.946;2023-02-03T01:26:07;5.13;;;2.10;;
13975;SDS011;7062;49.792;9.946;2023-02-03T01:28:34;4.07;;;2.67;;
13975;SDS011;7062;49.792;9.946;2023-02-03T01:31:14;5.78;;;3.03;;
13975;SDS011;7062;49.792;9.946;2023-02-03T01:33:42;3.73;;;2.17;;
13975;SDS011;7062;49.792;9.946;2023-02-03T01:36:12;4.63;;;2.83;;
13975;SDS011;7062;49.792;9.946;2023-02-03T01:38:39;4.83;;;2.87;;
13975;SDS011;7062;49.792;9.946;2023-02-03T01:41:06;8.13;;;2.92;;
13975;SDS011;7062;49.792;9.946;2023-02-03T01:43:38;7.20;;;2.63;;
13975;SDS011;7062;49.792;9.946;2023-02-03T01:48:53;3.70;;;2.33;;
13975;SDS011;7062;49.792;9.946;2023-02-03T01:51:23;5.53;;;2.45;;
13975;SDS011;7062;49.792;9.946;2023-02-03T01:53:49;3.73;;;2.20;;
13975;SDS011;7062;49.792;9.946;2023-02-03T01:56:17;6.70;;;2.28;;
13975;SDS011;7062;49.792;9.946;2023-02-03T01:58:43;3.57;;;2.83;;
13975;SDS011;7062;49.792;9.946;2023-02-03T02:01:12;5.75;;;2.90;;
13975;SDS011;7062;49.792;9.946;2023-02-03T02:03:43;6.37;;;3.47;;
13975;SDS011;7062;49.792;9.946;2023-02-03T02:06:14;7.77;;;2.90;;
13975;SDS011;7062;49.792;9.946;2023-02-03T02:08:56;3.88;;;2.53;;
13975;SDS011;7062;49.792;9.946;2023-02-03T02:11:24;4.63;;;2.70;;
13975;SDS011;7062;49.792;9.946;2023-02-03T02:13:51;3.65;;;2.50;;
13975;SDS011;7062;49.792;9.946;2023-02-03T02:35:03;7.47;;;2.53;;
13975;SDS011;7062;49.792;9.946;2023-02-03T02:43:13;7.05;;;3.45;;
13975;SDS011;7062;49.792;9.946;2023-02-03T02:45:46;3.47;;;2.33;;
13975;SDS011;7062;49.792;9.946;2023-02-03T02:48:51;7.82;;;2.65;;
13975;SDS011;7062;49.792;9.946;2023-02-03T02:51:16;7.93;;;2.88;;
13975;SDS011;7062;49.792;9.946;2023-02-03T02:53:48;3.78;;;2.45;;
13975;SDS011;7062;49.792;9.946;2023-02-03T02:56:21;5.05;;;3.20;;
13975;SDS011;7062;49.792;9.946;2023-02-03T02:58:51;4.07;;;3.60;;
13975;SDS011;7062;49.792;9.946;2023-02-03T03:01:20;4.30;;;2.72;;
13975;SDS011;7062;49.792;9.946;2023-02-03T03:03:45;8.63;;;3.47;;
13975;SDS011;7062;49.792;9.946;2023-02-03T03:06:14;6.57;;;3.20;;
13975;SDS011;7062;49.792;9.946;2023-02-03T03:08:53;5.30;;;3.25;;
13975;SDS011;7062;49.792;9.946;2023-02-03T03:11:30;6.65;;;3.72;;
13975;SDS011;7062;49.792;9.946;2023-02-03T03:14:01;6.18;;;3.08;;
13975;SDS011;7062;49.792;9.946;2023-02-03T03:16:30;6.57;;;3.33;;
13975;SDS011;7062;49.792;9.946;2023-02-03T03:19:04;6.35;;;3.25;;
13975;SDS011;7062;49.792;9.946;2023-02-03T03:21:33;6.40;;;2.55;;
13975;SDS011;7062;49.792;9.946;2023-02-03T03:24:05;4.15;;;2.17;;
13975;SDS011;7062;49.792;9.946;2023-02-03T03:26:35;3.97;;;2.22;;
13975;SDS011;7062;49.792;9.946;2023-02-03T03:29:40;4.60;;;2.80;;
13975;SDS011;7062;49.792;9.946;2023-02-03T03:32:05;7.35;;;2.70;;
13975;SDS011;7062;49.792;9.946;2023-02-03T03:34:31;3.00;;;1.87;;
13975;SDS011;7062;49.792;9.946;2023-02-03T03:37:00;3.80;;;2.20;;
13975;SDS011;7062;49.792;9.946;2023-02-03T03:39:53;4.95;;;2.03;;
13975;SDS011;7062;49.792;9.946;2023-02-03T03:42:52;5.32;;;2.60;;
13975;SDS011;7062;49.792;9.946;2023-02-03T03:48:00;6.05;;;2.30;;
13975;SDS011;7062;49.792;9.946;2023-02-03T03:50:31;3.40;;;1.90;;
13975;SDS011;7062;49.792;9.946;2023-02-03T03:53:01;2.45;;;2.25;;
13975;SDS011;7062;49.792;9.946;2023-02-03T03:55:30;3.13;;;2.08;;
13975;SDS011;7062;49.792;9.946;2023-02-03T03:57:59;5.00;;;2.10;;
13975;SDS011;7062;49.792;9.946;2023-02-03T04:00:35;2.42;;;2.20;;
13975;SDS011;7062;49.792;9.946;2023-02-03T04:03:16;5.50;;;2.40;;
13975;SDS011;7062;49.792;9.946;2023-02-03T04:05:47;7.85;;;2.38;;
13975;SDS011;7062;49.792;9.946;2023-02-03T04:08:13;4.65;;;2.20;;
13975;SDS011;7062;49.792;9.946;2023-02-03T04:10:39;3.97;;;1.87;;
13975;SDS011;7062;49.792;9.946;2023-02-03T04:13:07;2.33;;;1.60;;
13975;SDS011;7062;49.792;9.946;2023-02-03T04:15:34;3.38;;;1.85;;
13975;SDS011;7062;49.792;9.946;2023-02-03T04:18:00;3.87;;;2.07;;
13975;SDS011;7062;49.792;9.946;2023-02-03T04:20:27;2.83;;;1.90;;
13975;SDS011;7062;49.792;9.946;2023-02-03T04:22:53;2.80;;;1.58;;
13975;SDS011;7062;49.792;9.946;2023-02-03T04:25:19;3.40;;;1.53;;
13975;SDS011;7062;49.792;9.946;2023-02-03T04:27:45;3.95;;;2.15;;
13975;SDS011;7062;49.792;9.946;2023-02-03T04:30:11;1.63;;;1.20;;
13975;SDS011;7062;49.792;9.946;2023-02-03T04:32:37;2.13;;;1.30;;
13975;SDS011;7062;49.792;9.946;2023-02-03T04:35:04;4.37;;;1.40;;
13975;SDS011;7062;49.792;9.946;2023-02-03T04:37:30;2.55;;;1.42;;
13975;SDS011;7062;49.792;9.946;2023-02-03T04:39:56;1.37;;;1.20;;
13975;SDS011;7062;49.792;9.946;2023-02-03T04:42:22;1.03;;;0.70;;
13975;SDS011;7062;49.792;9.946;2023-02-03T04:44:48;1.00;;;0.85;;
13975;SDS011;7062;49.792;9.946;2023-02-03T04:47:14;2.33;;;1.10;;
13975;SDS011;7062;49.792;9.946;2023-02-03T04:49:41;3.17;;;1.23;;
13975;SDS011;7062;49.792;9.946;2023-02-03T04:52:06;1.63;;;1.13;;
13975;SDS011;7062;49.792;9.946;2023-02-03T04:54:32;1.75;;;1.33;;
13975;SDS011;7062;49.792;9.946;2023-02-03T04:56:58;1.80;;;1.40;;
13975;SDS011;7062;49.792;9.946;2023-02-03T04:59:24;2.35;;;0.93;;
13975;SDS011;7062;49.792;9.946;2023-02-03T05:01:50;1.55;;;0.80;;
13975;SDS011;7062;49.792;9.946;2023-02-03T05:04:16;2.23;;;0.90;;
13975;SDS011;7062;49.792;9.946;2023-02-03T05:06:42;0.73;;;0.63;;
13975;SDS011;7062;49.792;9.946;2023-02-03T05:09:08;1.33;;;1.00;;
13975;SDS011;7062;49.792;9.946;2023-02-03T05:11:33;1.27;;;0.83;;
13975;SDS011;7062;49.792;9.946;2023-02-03T05:13:59;3.17;;;0.90;;
13975;SDS011;7062;49.792;9.946;2023-02-03T05:16:25;2.77;;;1.03;;
13975;SDS011;7062;49.792;9.946;2023-02-03T05:18:50;1.10;;;0.80;;
13975;SDS011;7062;49.792;9.946;2023-02-03T05:21:16;3.10;;;1.00;;
13975;SDS011;7062;49.792;9.946;2023-02-03T05:23:42;1.43;;;0.87;;
13975;SDS011;7062;49.792;9.946;2023-02-03T05:26:07;3.80;;;0.90;;
13975;SDS011;7062;49.792;9.946;2023-02-03T05:28:33;0.80;;;0.70;;
13975;SDS011;7062;49.792;9.946;2023-02-03T05:31:00;0.73;;;0.70;;
13975;SDS011;7062;49.792;9.946;2023-02-03T05:33:27;2.70;;;1.00;;
13975;SDS011;7062;49.792;9.946;2023-02-03T05:35:53;0.73;;;0.70;;
13975;SDS011;7062;49.792;9.946;2023-02-03T05:38:18;1.07;;;0.70;;
13975;SDS011;7062;49.792;9.946;2023-02-03T05:40:48;1.48;;;0.90;;
13975;SDS011;7062;49.792;9.946;2023-02-03T05:43:33;1.30;;;0.80;;
13975;SDS011;7062;49.792;9.946;2023-02-03T05:46:00;0.85;;;0.63;;
13975;SDS011;7062;49.792;9.946;2023-02-03T05:48:27;2.63;;;0.65;;
13975;SDS011;7062;49.792;9.946;2023-02-03T05:50:52;1.67;;;0.90;;
13975;SDS011;7062;49.792;9.946;2023-02-03T05:53:18;1.47;;;0.93;;
13975;SDS011;7062;49.792;9.946;2023-02-03T05:55:44;1.63;;;0.87;;
13975;SDS011;7062;49.792;9.946;2023-02-03T05:58:09;2.40;;;0.80;;
13975;SDS011;7062;49.792;9.946;2023-02-03T06:00:35;1.50;;;1.00;;
13975;SDS011;7062;49.792;9.946;2023-02-03T06:03:01;2.97;;;0.87;;
13975;SDS011;7062;49.792;9.946;2023-02-03T06:05:28;3.05;;;1.63;;
13975;SDS011;7062;49.792;9.946;2023-02-03T06:07:54;3.15;;;1.55;;
13975;SDS011;7062;49.792;9.946;2023-02-03T06:10:20;4.57;;;1.03;;
13975;SDS011;7062;49.792;9.946;2023-02-03T06:12:46;1.33;;;1.00;;
13975;SDS011;7062;49.792;9.946;2023-02-03T06:15:13;1.77;;;1.20;;
13975;SDS011;7062;49.792;9.946;2023-02-03T06:17:38;1.67;;;1.48;;
13975;SDS011;7062;49.792;9.946;2023-02-03T06:20:07;1.98;;;1.20;;
13975;SDS011;7062;49.792;9.946;2023-02-03T06:22:34;1.30;;;1.10;;
13975;SDS011;7062;49.792;9.946;2023-02-03T06:25:00;2.10;;;1.17;;
13975;SDS011;7062;49.792;9.946;2023-02-03T06:27:26;1.27;;;1.07;;
13975;SDS011;7062;49.792;9.946;2023-02-03T06:29:51;1.70;;;1.23;;
13975;SDS011;7062;49.792;9.946;2023-02-03T06:32:17;1.97;;;1.20;;
13975;SDS011;7062;49.792;9.946;2023-02-03T06:34:43;1.60;;;1.20;;
13975;SDS011;7062;49.792;9.946;2023-02-03T06:37:09;2.20;;;1.43;;
13975;SDS011;7062;49.792;9.946;2023-02-03T06:39:35;1.70;;;1.20;;
13975;SDS011;7062;49.792;9.946;2023-02-03T06:42:00;2.53;;;1.00;;
13975;SDS011;7062;49.792;9.946;2023-02-03T06:44:26;2.10;;;1.03;;
13975;SDS011;7062;49.792;9.946;2023-02-03T06:46:52;3.07;;;1.77;;
13975;SDS011;7062;49.792;9.946;2023-02-03T06:49:18;2.10;;;1.37;;
13975;SDS011;7062;49.792;9.946;2023-02-03T06:51:44;5.37;;;1.40;;
13975;SDS011;7062;49.792;9.946;2023-02-03T06:54:10;2.95;;;1.30;;
13975;SDS011;7062;49.792;9.946;2023-02-03T06:56:36;2.40;;;1.20;;
13975;SDS011;7062;49.792;9.946;2023-02-03T06:59:03;1.87;;;1.07;;
13975;SDS011;7062;49.792;9.946;2023-02-03T07:01:29;2.40;;;1.42;;
13975;SDS011;7062;49.792;9.946;2023-02-03T07:03:55;4.68;;;1.40;;
13975;SDS011;7062;49.792;9.946;2023-02-03T07:06:25;3.67;;;1.10;;
13975;SDS011;7062;49.792;9.946;2023-02-03T07:08:53;2.22;;;1.10;;
13975;SDS011;7062;49.792;9.946;2023-02-03T07:11:20;2.08;;;1.00;;
13975;SDS011;7062;49.792;9.946;2023-02-03T07:13:46;4.22;;;1.50;;
13975;SDS011;7062;49.792;9.946;2023-02-03T07:16:11;1.60;;;1.00;;
13975;SDS011;7062;49.792;9.946;2023-02-03T07:18:37;2.07;;;0.90;;
13975;SDS011;7062;49.792;9.946;2023-02-03T07:21:04;2.67;;;1.23;;
13975;SDS011;7062;49.792;9.946;2023-02-03T07:23:30;1.63;;;1.30;;
13975;SDS011;7062;49.792;9.946;2023-02-03T07:26:02;1.80;;;1.13;;
13975;SDS011;7062;49.792;9.946;2023-02-03T07:28:30;1.73;;;1.00;;
13975;SDS011;7062;49.792;9.946;2023-02-03T07:30:56;1.85;;;1.40;;
13975;SDS011;7062;49.792;9.946;2023-02-03T07:33:22;3.73;;;1.53;;
13975;SDS011;7062;49.792;9.946;2023-02-03T07:35:54;2.60;;;0.97;;
13975;SDS011;7062;49.792;9.946;2023-02-03T07:38:21;2.63;;;1.13;;
13975;SDS011;7062;49.792;9.946;2023-02-03T07:40:48;2.50;;;1.20;;
13975;SDS011;7062;49.792;9.946;2023-02-03T07:43:14;2.47;;;1.13;;
13975;SDS011;7062;49.792;9.946;2023-02-03T07:45:40;1.10;;;1.00;;
13975;SDS011;7062;49.792;9.946;2023-02-03T07:48:05;1.95;;;1.10;;
13975;SDS011;7062;49.792;9.946;2023-02-03T07:50:31;1.40;;;1.17;;
13975;SDS011;7062;49.792;9.946;2023-02-03T07:52:57;3.83;;;1.17;;
13975;SDS011;7062;49.792;9.946;2023-02-03T07:55:24;2.90;;;1.40;;
13975;SDS011;7062;49.792;9.946;2023-02-03T07:57:51;2.77;;;1.50;;
13975;SDS011;7062;49.792;9.946;2023-02-03T08:00:18;3.60;;;1.30;;
13975;SDS011;7062;49.792;9.946;2023-02-03T08:02:44;3.10;;;1.13;;
13975;SDS011;7062;49.792;9.946;2023-02-03T08:05:11;3.17;;;1.30;;
13975;SDS011;7062;49.792;9.946;2023-02-03T08:07:37;2.15;;;0.90;;
13975;SDS011;7062;49.792;9.946;2023-02-03T08:10:02;2.13;;;1.10;;
13975;SDS011;7062;49.792;9.946;2023-02-03T08:12:28;2.40;;;1.37;;
13975;SDS011;7062;49.792;9.946;2023-02-03T08:14:54;1.37;;;1.00;;
13975;SDS011;7062;49.792;9.946;2023-02-03T08:17:20;1.87;;;1.50;;
13975;SDS011;7062;49.792;9.946;2023-02-03T08:19:45;2.77;;;1.23;;
13975;SDS011;7062;49.792;9.946;2023-02-03T08:22:11;2.90;;;1.53;;
13975;SDS011;7062;49.792;9.946;2023-02-03T08:24:43;2.07;;;1.30;;
13975;SDS011;7062;49.792;9.946;2023-02-03T08:27:14;2.97;;;1.33;;
13975;SDS011;7062;49.792;9.946;2023-02-03T08:29:41;3.07;;;1.37;;
13975;SDS011;7062;49.792;9.946;2023-02-03T08:32:14;2.87;;;1.93;;
13975;SDS011;7062;49.792;9.946;2023-02-03T08:34:41;2.15;;;1.33;;
13975;SDS011;7062;49.792;9.946;2023-02-03T08:37:07;1.90;;;1.47;;
13975;SDS011;7062;49.792;9.946;2023-02-03T08:39:35;1.57;;;1.20;;
13975;SDS011;7062;49.792;9.946;2023-02-03T08:42:01;2.53;;;1.30;;
13975;SDS011;7062;49.792;9.946;2023-02-03T08:44:30;1.73;;;1.40;;
13975;SDS011;7062;49.792;9.946;2023-02-03T08:46:57;1.83;;;0.87;;
13975;SDS011;7062;49.792;9.946;2023-02-03T08:49:24;1.30;;;0.80;;
13975;SDS011;7062;49.792;9.946;2023-02-03T08:51:51;4.80;;;1.20;;
13975;SDS011;7062;49.792;9.946;2023-02-03T08:54:17;2.97;;;1.07;;
13975;SDS011;7062;49.792;9.946;2023-02-03T08:56:43;2.47;;;1.47;;
13975;SDS011;7062;49.792;9.946;2023-02-03T08:59:09;1.87;;;1.00;;
13975;SDS011;7062;49.792;9.946;2023-02-03T09:01:35;1.83;;;1.17;;
13975;SDS011;7062;49.792;9.946;2023-02-03T09:04:00;1.83;;;1.00;;
13975;SDS011;7062;49.792;9.946;2023-02-03T09:06:28;3.53;;;1.20;;
13975;SDS011;7062;49.792;9.946;2023-02-03T09:08:55;2.67;;;0.97;;
13975;SDS011;7062;49.792;9.946;2023-02-03T09:11:21;3.20;;;1.87;;
13975;SDS011;7062;49.792;9.946;2023-02-03T09:13:47;0.87;;;0.80;;
13975;SDS011;7062;49.792;9.946;2023-02-03T09:16:13;1.93;;;0.80;;
13975;SDS011;7062;49.792;9.946;2023-02-03T09:18:41;3.00;;;0.80;;
13975;SDS011;7062;49.792;9.946;2023-02-03T09:21:08;1.10;;;0.63;;
13975;SDS011;7062;49.792;9.946;2023-02-03T09:23:38;2.07;;;0.90;;
13975;SDS011;7062;49.792;9.946;2023-02-03T09:26:05;2.77;;;1.03;;
13975;SDS011;7062;49.792;9.946;2023-02-03T09:28:32;0.70;;;0.70;;
13975;SDS011;7062;49.792;9.946;2023-02-03T09:31:20;2.90;;;0.90;;
13975;SDS011;7062;49.792;9.946;2023-02-03T09:33:45;1.00;;;0.90;;
13975;SDS011;7062;49.792;9.946;2023-02-03T09:36:11;2.53;;;0.70;;
13975;SDS011;7062;49.792;9.946;2023-02-03T09:38:37;1.97;;;0.90;;
13975;SDS011;7062;49.792;9.946;2023-02-03T09:46:19;1.10;;;1.00;;
13975;SDS011;7062;49.792;9.946;2023-02-03T09:51:42;1.00;;;0.80;;
13975;SDS011;7062;49.792;9.946;2023-02-03T09:54:36;2.87;;;1.17;;
13975;SDS011;7062;49.792;9.946;2023-02-03T09:57:22;2.30;;;0.80;;
13975;SDS011;7062;49.792;9.946;2023-02-03T09:59:49;1.50;;;1.00;;
13975;SDS011;7062;49.792;9.946;2023-02-03T10:07:44;3.40;;;0.70;;
13975;SDS011;7062;49.792;9.946;2023-02-03T10:10:21;3.90;;;1.17;;
13975;SDS011;7062;49.792;9.946;2023-02-03T10:15:43;1.23;;;0.80;;
13975;SDS011;7062;49.792;9.946;2023-02-03T10:18:16;1.83;;;0.90;;
13975;SDS011;7062;49.792;9.946;2023-02-03T10:23:19;0.70;;;0.67;;
13975;SDS011;7062;49.792;9.946;2023-02-03T10:25:51;1.50;;;0.70;;
13975;SDS011;7062;49.792;9.946;2023-02-03T10:28:20;2.10;;;0.73;;
13975;SDS011;7062;49.792;9.946;2023-02-03T10:30:57;2.53;;;1.00;;
13975;SDS011;7062;49.792;9.946;2023-02-03T10:33:26;0.97;;;0.50;;
13975;SDS011;7062;49.792;9.946;2023-02-03T10:41:35;1.93;;;0.73;;
13975;SDS011;7062;49.792;9.946;2023-02-03T10:44:02;2.50;;;0.80;;
13975;SDS011;7062;49.792;9.946;2023-02-03T10:46:33;0.90;;;0.60;;
13975;SDS011;7062;49.792;9.946;2023-02-03T10:49:02;2.97;;;1.13;;
13975;SDS011;7062;49.792;9.946;2023-02-03T10:51:28;2.30;;;0.93;;
13975;SDS011;7062;49.792;9.946;2023-02-03T10:54:28;3.10;;;0.90;;
13975;SDS011;7062;49.792;9.946;2023-02-03T10:57:16;2.33;;;0.60;;
13975;SDS011;7062;49.792;9.946;2023-02-03T10:59:43;1.10;;;0.70;;
13975;SDS011;7062;49.792;9.946;2023-02-03T11:02:44;1.83;;;0.63;;
13975;SDS011;7062;49.792;9.946;2023-02-03T11:07:45;0.97;;;0.57;;
13975;SDS011;7062;49.792;9.946;2023-02-03T11:10:24;2.10;;;0.80;;
13975;SDS011;7062;49.792;9.946;2023-02-03T11:15:41;1.53;;;0.63;;
13975;SDS011;7062;49.792;9.946;2023-02-03T11:21:11;3.13;;;0.70;;
13975;SDS011;7062;49.792;9.946;2023-02-03T11:29:05;2.37;;;0.73;;
13975;SDS011;7062;49.792;9.946;2023-02-03T11:31:53;3.30;;;1.03;;
13975;SDS011;7062;49.792;9.946;2023-02-03T11:34:24;1.40;;;0.63;;
13975;SDS011;7062;49.792;9.946;2023-02-03T11:37:34;5.23;;;0.77;;
13975;SDS011;7062;49.792;9.946;2023-02-03T11:42:37;0.60;;;0.60;;
13975;SDS011;7062;49.792;9.946;2023-02-03T11:48:24;0.93;;;0.70;;
13975;SDS011;7062;49.792;9.946;2023-02-03T12:12:31;2.03;;;0.67;;
13975;SDS011;7062;49.792;9.946;2023-02-03T12:26:22;1.13;;;0.60;;
13975;SDS011;7062;49.792;9.946;2023-02-03T12:29:00;0.77;;;0.60;;
13975;SDS011;7062;49.792;9.946;2023-02-03T12:31:35;1.03;;;0.30;;
13975;SDS011;7062;49.792;9.946;2023-02-03T12:36:39;2.97;;;0.63;;
13975;SDS011;7062;49.792;9.946;2023-02-03T12:44:47;2.00;;;0.60;;
13975;SDS011;7062;49.792;9.946;2023-02-03T12:49:51;0.50;;;0.43;;
13975;SDS011;7062;49.792;9.946;2023-02-03T12:52:31;0.40;;;0.40;;
13975;SDS011;7062;49.792;9.946;2023-02-03T12:57:41;0.67;;;0.33;;
13975;SDS011;7062;49.792;9.946;2023-02-03T13:03:16;0.40;;;0.40;;
13975;SDS011;7062;49.792;9.946;2023-02-03T13:08:21;1.27;;;0.60;;
13975;SDS011;7062;49.792;9.946;2023-02-03T13:11:22;0.28;;;0.28;;
13975;SDS011;7062;49.792;9.946;2023-02-03T13:13:53;0.77;;;0.40;;
13975;SDS011;7062;49.792;9.946;2023-02-03T13:16:29;2.30;;;0.40;;
13975;SDS011;7062;49.792;9.946;2023-02-03T13:19:44;0.80;;;0.37;;
13975;SDS011;7062;49.792;9.946;2023-02-03T13:21:51;4.50;;;0.50;;
13975;SDS011;7062;49.792;9.946;2023-02-03T13:24:16;0.40;;;0.30;;
13975;SDS011;7062;49.792;9.946;2023-02-03T13:26:54;0.40;;;0.40;;
13975;SDS011;7062;49.792;9.946;2023-02-03T13:29:49;2.07;;;0.50;;
13975;SDS011;7062;49.792;9.946;2023-02-03T13:32:48;0.40;;;0.40;;
13975;SDS011;7062;49.792;9.946;2023-02-03T13:41:14;2.53;;;0.60;;
13975;SDS011;7062;49.792;9.946;2023-02-03T13:43:43;0.83;;;0.50;;
13975;SDS011;7062;49.792;9.946;2023-02-03T13:46:28;0.50;;;0.50;;
13975;SDS011;7062;49.792;9.946;2023-02-03T13:48:56;0.53;;;0.50;;
13975;SDS011;7062;49.792;9.946;2023-02-03T13:51:32;0.23;;;0.23;;
13975;SDS011;7062;49.792;9.946;2023-02-03T13:54:16;0.30;;;0.30;;
13975;SDS011;7062;49.792;9.946;2023-02-03T13:56:55;1.67;;;0.47;;
13975;SDS011;7062;49.792;9.946;2023-02-03T13:59:27;0.73;;;0.37;;
13975;SDS011;7062;49.792;9.946;2023-02-03T14:15:18;0.60;;;0.60;;
13975;SDS011;7062;49.792;9.946;2023-02-03T14:22:58;0.60;;;0.50;;
13975;SDS011;7062;49.792;9.946;2023-02-03T14:25:38;0.50;;;0.40;;
13975;SDS011;7062;49.792;9.946;2023-02-03T14:28:12;0.87;;;0.60;;
13975;SDS011;7062;49.792;9.946;2023-02-03T14:50:43;3.03;;;0.50;;
13975;SDS011;7062;49.792;9.946;2023-02-03T14:55:34;0.73;;;0.43;;
13975;SDS011;7062;49.792;9.946;2023-02-03T14:58:03;0.60;;;0.30;;
13975;SDS011;7062;49.792;9.946;2023-02-03T15:01:00;0.70;;;0.30;;
13975;SDS011;7062;49.792;9.946;2023-02-03T15:03:28;0.50;;;0.40;;
13975;SDS011;7062;49.792;9.946;2023-02-03T15:05:58;0.50;;;0.40;;
13975;SDS011;7062;49.792;9.946;2023-02-03T15:10:57;1.00;;;0.50;;
13975;SDS011;7062;49.792;9.946;2023-02-03T15:13:26;0.63;;;0.40;;
13975;SDS011;7062;49.792;9.946;2023-02-03T15:16:00;0.90;;;0.37;;
13975;SDS011;7062;49.792;9.946;2023-02-03T15:18:32;0.67;;;0.40;;
13975;SDS011;7062;49.792;9.946;2023-02-03T15:21:00;0.53;;;0.50;;
13975;SDS011;7062;49.792;9.946;2023-02-03T15:23:36;1.40;;;0.37;;
13975;SDS011;7062;49.792;9.946;2023-02-03T15:26:10;0.53;;;0.50;;
13975;SDS011;7062;49.792;9.946;2023-02-03T15:28:38;2.20;;;0.60;;
13975;SDS011;7062;49.792;9.946;2023-02-03T15:31:15;0.30;;;0.30;;
13975;SDS011;7062;49.792;9.946;2023-02-03T15:33:47;0.40;;;0.40;;
13975;SDS011;7062;49.792;9.946;2023-02-03T15:36:17;0.67;;;0.50;;
13975;SDS011;7062;49.792;9.946;2023-02-03T15:38:53;1.40;;;0.40;;
13975;SDS011;7062;49.792;9.946;2023-02-03T15:41:30;0.67;;;0.43;;
13975;SDS011;7062;49.792;9.946;2023-02-03T15:43:57;0.93;;;0.50;;
13975;SDS011;7062;49.792;9.946;2023-02-03T15:46:44;0.30;;;0.30;;
13975;SDS011;7062;49.792;9.946;2023-02-03T15:49:17;0.80;;;0.30;;
13975;SDS011;7062;49.792;9.946;2023-02-03T15:51:50;0.63;;;0.33;;
13975;SDS011;7062;49.792;9.946;2023-02-03T15:54:30;0.30;;;0.30;;
13975;SDS011;7062;49.792;9.946;2023-02-03T15:57:14;0.53;;;0.40;;
13975;SDS011;7062;49.792;9.946;2023-02-03T15:59:49;0.80;;;0.50;;
13975;SDS011;7062;49.792;9.946;2023-02-03T16:02:29;0.83;;;0.50;;
13975;SDS011;7062;49.792;9.946;2023-02-03T16:05:03;3.30;;;0.60;;
13975;SDS011;7062;49.792;9.946;2023-02-03T16:07:35;0.40;;;0.40;;
13975;SDS011;7062;49.792;9.946;2023-02-03T16:10:01;0.83;;;0.60;;
13975;SDS011;7062;49.792;9.946;2023-02-03T16:12:27;0.70;;;0.40;;
13975;SDS011;7062;49.792;9.946;2023-02-03T16:14:54;0.50;;;0.40;;
13975;SDS011;7062;49.792;9.946;2023-02-03T16:22:38;0.37;;;0.37;;
13975;SDS011;7062;49.792;9.946;2023-02-03T16:25:23;1.50;;;0.60;;
13975;SDS011;7062;49.792;9.946;2023-02-03T16:28:01;0.30;;;0.30;;
13975;SDS011;7062;49.792;9.946;2023-02-03T16:30:53;0.70;;;0.50;;
13975;SDS011;7062;49.792;9.946;2023-02-03T16:33:44;3.67;;;0.70;;
13975;SDS011;7062;49.792;9.946;2023-02-03T16:36:29;1.83;;;0.50;;
13975;SDS011;7062;49.792;9.946;2023-02-03T16:39:14;0.60;;;0.40;;
13975;SDS011;7062;49.792;9.946;2023-02-03T16:41:58;1.10;;;0.50;;
13975;SDS011;7062;49.792;9.946;2023-02-03T16:44:49;1.03;;;0.60;;
13975;SDS011;7062;49.792;9.946;2023-02-03T16:47:33;1.93;;;0.50;;
13975;SDS011;7062;49.792;9.946;2023-02-03T16:50:21;1.30;;;0.47;;
13975;SDS011;7062;49.792;9.946;2023-02-03T16:53:12;0.50;;;0.50;;
13975;SDS011;7062;49.792;9.946;2023-02-03T16:55:43;0.40;;;0.40;;
13975;SDS011;7062;49.792;9.946;2023-02-03T16:58:10;0.67;;;0.50;;
13975;SDS011;7062;49.792;9.946;2023-02-03T17:00:37;0.70;;;0.63;;
13975;SDS011;7062;49.792;9.946;2023-02-03T17:03:05;1.90;;;0.80;;
13975;SDS011;7062;49.792;9.946;2023-02-03T17:05:35;1.00;;;0.70;;
13975;SDS011;7062;49.792;9.946;2023-02-03T17:08:02;1.23;;;0.60;;
13975;SDS011;7062;49.792;9.946;2023-02-03T17:10:28;2.33;;;0.43;;
13975;SDS011;7062;49.792;9.946;2023-02-03T17:12:53;1.40;;;0.73;;
13975;SDS011;7062;49.792;9.946;2023-02-03T17:15:19;1.37;;;0.70;;
13975;SDS011;7062;49.792;9.946;2023-02-03T17:17:45;0.70;;;0.70;;
13975;SDS011;7062;49.792;9.946;2023-02-03T17:20:11;0.70;;;0.70;;
13975;SDS011;7062;49.792;9.946;2023-02-03T17:22:37;0.70;;;0.53;;
13975;SDS011;7062;49.792;9.946;2023-02-03T17:25:02;2.50;;;1.00;;
13975;SDS011;7062;49.792;9.946;2023-02-03T17:27:28;0.60;;;0.60;;
13975;SDS011;7062;49.792;9.946;2023-02-03T17:29:54;0.67;;;0.60;;
13975;SDS011;7062;49.792;9.946;2023-02-03T17:32:20;0.77;;;0.67;;
13975;SDS011;7062;49.792;9.946;2023-02-03T17:34:45;1.13;;;0.77;;
13975;SDS011;7062;49.792;9.946;2023-02-03T17:37:11;2.17;;;0.83;;
13975;SDS011;7062;49.792;9.946;2023-02-03T17:39:37;1.67;;;0.97;;
13975;SDS011;7062;49.792;9.946;2023-02-03T17:42:02;0.80;;;0.80;;
13975;SDS011;7062;49.792;9.946;2023-02-03T17:44:28;0.80;;;0.63;;
13975;SDS011;7062;49.792;9.946;2023-02-03T17:46:54;0.80;;;0.80;;
13975;SDS011;7062;49.792;9.946;2023-02-03T17:49:19;2.13;;;0.77;;
13975;SDS011;7062;49.792;9.946;2023-02-03T17:51:45;1.47;;;0.60;;
13975;SDS011;7062;49.792;9.946;2023-02-03T17:54:10;0.63;;;0.63;;
13975;SDS011;7062;49.792;9.946;2023-02-03T17:56:36;0.90;;;0.60;;
13975;SDS011;7062;49.792;9.946;2023-02-03T17:59:03;0.77;;;0.70;;
13975;SDS011;7062;49.792;9.946;2023-02-03T18:01:29;1.10;;;1.00;;
13975;SDS011;7062;49.792;9.946;2023-02-03T18:04:04;0.70;;;0.70;;
13975;SDS011;7062;49.792;9.946;2023-02-03T18:06:31;2.37;;;1.10;;
13975;SDS011;7062;49.792;9.946;2023-02-03T18:08:59;2.77;;;1.40;;
13975;SDS011;7062;49.792;9.946;2023-02-03T18:11:27;1.90;;;1.27;;
13975;SDS011;7062;49.792;9.946;2023-02-03T18:13:54;2.20;;;1.23;;
13975;SDS011;7062;49.792;9.946;2023-02-03T18:16:21;2.83;;;1.40;;
13975;SDS011;7062;49.792;9.946;2023-02-03T18:18:53;1.90;;;1.40;;